sensor_id;sensor_type;location;lat;lon;timestamp;P1;durP1;ratioP1;P2;durP2;ratioP2
1475;SDS011;730;48.870;12.542;2022-12-29T00:02:13;9.20;;;7.65;;
1475;SDS011;730;48.870;12.542;2022-12-29T00:04:39;8.95;;;7.95;;
1475;SDS011;730;48.870;12.542;2022-12-29T00:07:06;8.48;;;7.68;;
1475;SDS011;730;48.870;12.542;2022-12-29T00:09:32;10.00;;;6.90;;
1475;SDS011;730;48.870;12.542;2022-12-29T00:11:59;9.05;;;7.00;;
1475;SDS011;730;48.870;12.542;2022-12-29T00:14:27;7.72;;;6.88;;
1475;SDS011;730;48.870;12.542;2022-12-29T00:17:12;8.27;;;7.07;;
1475;SDS011;730;48.870;12.542;2022-12-29T00:19:38;7.70;;;6.90;;
1475;SDS011;730;48.870;12.542;2022-12-29T00:22:23;8.50;;;7.13;;
1475;SDS011;730;48.870;12.542;2022-12-29T00:25:09;8.77;;;6.93;;
1475;SDS011;730;48.870;12.542;2022-12-29T00:27:55;9.02;;;8.13;;
1475;SDS011;730;48.870;12.542;2022-12-29T00:30:41;9.52;;;6.75;;
1475;SDS011;730;48.870;12.542;2022-12-29T00:33:28;8.10;;;7.30;;
1475;SDS011;730;48.870;12.542;2022-12-29T00:38:44;9.57;;;8.52;;
1475;SDS011;730;48.870;12.542;2022-12-29T00:41:35;9.98;;;7.10;;
1475;SDS011;730;48.870;12.542;2022-12-29T00:44:20;8.13;;;7.32;;
1475;SDS011;730;48.870;12.542;2022-12-29T00:46:46;8.57;;;7.65;;
1475;SDS011;730;48.870;12.542;2022-12-29T00:49:12;7.72;;;7.03;;
1475;SDS011;730;48.870;12.542;2022-12-29T00:51:58;7.20;;;6.47;;
1475;SDS011;730;48.870;12.542;2022-12-29T00:54:36;7.88;;;7.13;;
1475;SDS011;730;48.870;12.542;2022-12-29T00:57:04;6.88;;;6.18;;
1475;SDS011;730;48.870;12.542;2022-12-29T00:59:32;7.18;;;6.55;;
1475;SDS011;730;48.870;12.542;2022-12-29T01:02:00;9.73;;;8.73;;
1475;SDS011;730;48.870;12.542;2022-12-29T01:04:26;9.13;;;7.93;;
1475;SDS011;730;48.870;12.542;2022-12-29T01:06:52;7.35;;;6.60;;
1475;SDS011;730;48.870;12.542;2022-12-29T01:09:19;8.48;;;7.53;;
1475;SDS011;730;48.870;12.542;2022-12-29T01:12:05;8.50;;;7.68;;
1475;SDS011;730;48.870;12.542;2022-12-29T01:14:32;9.18;;;6.95;;
1475;SDS011;730;48.870;12.542;2022-12-29T01:16:58;6.70;;;6.13;;
1475;SDS011;730;48.870;12.542;2022-12-29T01:19:24;7.47;;;6.65;;
1475;SDS011;730;48.870;12.542;2022-12-29T01:21:51;7.40;;;6.60;;
1475;SDS011;730;48.870;12.542;2022-12-29T01:24:17;7.50;;;6.50;;
1475;SDS011;730;48.870;12.542;2022-12-29T01:26:44;7.22;;;6.57;;
1475;SDS011;730;48.870;12.542;2022-12-29T01:29:11;8.30;;;7.50;;
1475;SDS011;730;48.870;12.542;2022-12-29T01:31:37;9.00;;;7.05;;
1475;SDS011;730;48.870;12.542;2022-12-29T01:34:04;7.03;;;6.32;;
1475;SDS011;730;48.870;12.542;2022-12-29T01:36:30;7.03;;;6.32;;
1475;SDS011;730;48.870;12.542;2022-12-29T01:38:56;10.80;;;7.07;;
1475;SDS011;730;48.870;12.542;2022-12-29T01:41:23;7.20;;;6.57;;
1475;SDS011;730;48.870;12.542;2022-12-29T01:43:50;8.68;;;6.30;;
1475;SDS011;730;48.870;12.542;2022-12-29T01:51:40;7.57;;;5.97;;
1475;SDS011;730;48.870;12.542;2022-12-29T01:54:16;7.40;;;6.65;;
1475;SDS011;730;48.870;12.542;2022-12-29T01:56:52;7.50;;;6.28;;
1475;SDS011;730;48.870;12.542;2022-12-29T01:59:22;6.93;;;6.22;;
1475;SDS011;730;48.870;12.542;2022-12-29T02:01:52;7.50;;;6.35;;
1475;SDS011;730;48.870;12.542;2022-12-29T02:04:18;7.45;;;6.35;;
1475;SDS011;730;48.870;12.542;2022-12-29T02:06:48;7.47;;;5.85;;
1475;SDS011;730;48.870;12.542;2022-12-29T02:09:27;7.30;;;6.38;;
1475;SDS011;730;48.870;12.542;2022-12-29T02:11:53;8.55;;;6.32;;
1475;SDS011;730;48.870;12.542;2022-12-29T02:14:19;6.85;;;6.00;;
1475;SDS011;730;48.870;12.542;2022-12-29T02:31:52;6.18;;;5.57;;
1475;SDS011;730;48.870;12.542;2022-12-29T02:34:26;7.75;;;6.45;;
1475;SDS011;730;48.870;12.542;2022-12-29T02:37:22;7.97;;;7.05;;
1475;SDS011;730;48.870;12.542;2022-12-29T02:43:04;10.85;;;6.90;;
1475;SDS011;730;48.870;12.542;2022-12-29T02:45:57;7.32;;;6.43;;
1475;SDS011;730;48.870;12.542;2022-12-29T02:48:32;8.63;;;7.03;;
1475;SDS011;730;48.870;12.542;2022-12-29T02:51:18;7.28;;;6.57;;
1475;SDS011;730;48.870;12.542;2022-12-29T02:53:49;7.70;;;6.90;;
1475;SDS011;730;48.870;12.542;2022-12-29T02:56:36;7.60;;;6.57;;
1475;SDS011;730;48.870;12.542;2022-12-29T02:59:02;7.30;;;6.47;;
1475;SDS011;730;48.870;12.542;2022-12-29T03:04:41;8.05;;;6.80;;
1475;SDS011;730;48.870;12.542;2022-12-29T03:10:30;6.40;;;5.80;;
1475;SDS011;730;48.870;12.542;2022-12-29T03:21:34;6.03;;;5.45;;
1475;SDS011;730;48.870;12.542;2022-12-29T03:24:24;6.80;;;6.10;;
1475;SDS011;730;48.870;12.542;2022-12-29T03:26:54;6.93;;;6.15;;
1475;SDS011;730;48.870;12.542;2022-12-29T03:29:24;7.97;;;6.35;;
1475;SDS011;730;48.870;12.542;2022-12-29T03:31:53;6.82;;;6.07;;
1475;SDS011;730;48.870;12.542;2022-12-29T03:34:21;7.60;;;6.80;;
1475;SDS011;730;48.870;12.542;2022-12-29T03:36:52;7.97;;;6.88;;
1475;SDS011;730;48.870;12.542;2022-12-29T03:39:28;7.60;;;6.80;;
1475;SDS011;730;48.870;12.542;2022-12-29T03:41:55;7.35;;;6.47;;
1475;SDS011;730;48.870;12.542;2022-12-29T03:44:32;7.53;;;5.70;;
1475;SDS011;730;48.870;12.542;2022-12-29T03:46:59;8.05;;;6.50;;
1475;SDS011;730;48.870;12.542;2022-12-29T03:49:25;7.32;;;6.10;;
1475;SDS011;730;48.870;12.542;2022-12-29T03:51:51;7.07;;;6.38;;
1475;SDS011;730;48.870;12.542;2022-12-29T03:54:17;8.25;;;7.45;;
1475;SDS011;730;48.870;12.542;2022-12-29T03:56:43;8.80;;;6.93;;
1475;SDS011;730;48.870;12.542;2022-12-29T03:59:09;7.32;;;6.43;;
1475;SDS011;730;48.870;12.542;2022-12-29T04:01:35;6.65;;;6.05;;
1475;SDS011;730;48.870;12.542;2022-12-29T04:04:01;7.30;;;6.60;;
1475;SDS011;730;48.870;12.542;2022-12-29T04:06:27;8.32;;;6.30;;
1475;SDS011;730;48.870;12.542;2022-12-29T04:08:53;7.53;;;6.72;;
1475;SDS011;730;48.870;12.542;2022-12-29T04:11:19;6.53;;;5.90;;
1475;SDS011;730;48.870;12.542;2022-12-29T04:13:47;7.32;;;6.28;;
1475;SDS011;730;48.870;12.542;2022-12-29T04:16:13;6.20;;;5.60;;
1475;SDS011;730;48.870;12.542;2022-12-29T04:18:39;6.60;;;5.90;;
1475;SDS011;730;48.870;12.542;2022-12-29T04:21:05;6.45;;;5.43;;
1475;SDS011;730;48.870;12.542;2022-12-29T04:23:33;7.53;;;5.78;;
1475;SDS011;730;48.870;12.542;2022-12-29T04:26:01;7.07;;;5.50;;
1475;SDS011;730;48.870;12.542;2022-12-29T04:28:27;5.30;;;4.80;;
1475;SDS011;730;48.870;12.542;2022-12-29T04:30:54;7.47;;;6.03;;
1475;SDS011;730;48.870;12.542;2022-12-29T04:33:20;6.10;;;5.50;;
1475;SDS011;730;48.870;12.542;2022-12-29T04:35:47;7.28;;;6.57;;
1475;SDS011;730;48.870;12.542;2022-12-29T04:38:13;6.38;;;5.30;;
1475;SDS011;730;48.870;12.542;2022-12-29T04:40:40;6.50;;;5.60;;
1475;SDS011;730;48.870;12.542;2022-12-29T04:43:07;8.48;;;6.13;;
1475;SDS011;730;48.870;12.542;2022-12-29T04:45:34;6.95;;;6.07;;
1475;SDS011;730;48.870;12.542;2022-12-29T04:48:00;7.43;;;6.55;;
1475;SDS011;730;48.870;12.542;2022-12-29T04:50:26;6.80;;;6.15;;
1475;SDS011;730;48.870;12.542;2022-12-29T04:52:52;6.03;;;5.43;;
1475;SDS011;730;48.870;12.542;2022-12-29T04:55:18;7.03;;;6.00;;
1475;SDS011;730;48.870;12.542;2022-12-29T04:57:45;5.82;;;5.32;;
1475;SDS011;730;48.870;12.542;2022-12-29T05:00:11;6.70;;;6.00;;
1475;SDS011;730;48.870;12.542;2022-12-29T05:02:38;8.15;;;7.13;;
1475;SDS011;730;48.870;12.542;2022-12-29T05:05:04;7.05;;;6.35;;
1475;SDS011;730;48.870;12.542;2022-12-29T05:07:31;6.57;;;5.90;;
1475;SDS011;730;48.870;12.542;2022-12-29T05:09:59;6.78;;;6.00;;
1475;SDS011;730;48.870;12.542;2022-12-29T05:12:25;6.55;;;5.82;;
1475;SDS011;730;48.870;12.542;2022-12-29T05:14:51;6.72;;;6.13;;
1475;SDS011;730;48.870;12.542;2022-12-29T05:17:17;6.30;;;5.38;;
1475;SDS011;730;48.870;12.542;2022-12-29T05:19:43;6.07;;;5.05;;
1475;SDS011;730;48.870;12.542;2022-12-29T05:22:09;5.85;;;5.18;;
1475;SDS011;730;48.870;12.542;2022-12-29T05:24:35;6.43;;;5.90;;
1475;SDS011;730;48.870;12.542;2022-12-29T05:27:01;7.38;;;5.38;;
1475;SDS011;730;48.870;12.542;2022-12-29T05:29:27;7.38;;;5.20;;
1475;SDS011;730;48.870;12.542;2022-12-29T05:31:53;5.88;;;5.28;;
1475;SDS011;730;48.870;12.542;2022-12-29T05:34:19;7.85;;;5.88;;
1475;SDS011;730;48.870;12.542;2022-12-29T05:36:45;8.77;;;6.70;;
1475;SDS011;730;48.870;12.542;2022-12-29T05:39:11;6.45;;;5.85;;
1475;SDS011;730;48.870;12.542;2022-12-29T05:41:37;6.07;;;5.47;;
1475;SDS011;730;48.870;12.542;2022-12-29T05:44:04;5.47;;;4.95;;
1475;SDS011;730;48.870;12.542;2022-12-29T05:46:30;7.28;;;6.07;;
1475;SDS011;730;48.870;12.542;2022-12-29T05:48:56;7.40;;;5.53;;
1475;SDS011;730;48.870;12.542;2022-12-29T05:51:22;5.97;;;4.90;;
1475;SDS011;730;48.870;12.542;2022-12-29T05:53:48;6.18;;;5.57;;
1475;SDS011;730;48.870;12.542;2022-12-29T05:56:15;6.75;;;5.65;;
1475;SDS011;730;48.870;12.542;2022-12-29T05:58:41;7.28;;;5.53;;
1475;SDS011;730;48.870;12.542;2022-12-29T06:01:07;5.60;;;5.10;;
1475;SDS011;730;48.870;12.542;2022-12-29T06:03:36;5.10;;;4.60;;
1475;SDS011;730;48.870;12.542;2022-12-29T06:06:02;5.20;;;4.70;;
1475;SDS011;730;48.870;12.542;2022-12-29T06:08:28;5.97;;;5.38;;
1475;SDS011;730;48.870;12.542;2022-12-29T06:10:54;5.90;;;5.00;;
1475;SDS011;730;48.870;12.542;2022-12-29T06:13:20;5.65;;;5.13;;
1475;SDS011;730;48.870;12.542;2022-12-29T06:15:51;6.55;;;5.28;;
1475;SDS011;730;48.870;12.542;2022-12-29T06:18:17;5.30;;;4.80;;
1475;SDS011;730;48.870;12.542;2022-12-29T06:20:43;5.13;;;4.68;;
1475;SDS011;730;48.870;12.542;2022-12-29T06:23:09;6.45;;;5.18;;
1475;SDS011;730;48.870;12.542;2022-12-29T06:25:37;4.75;;;4.28;;
1475;SDS011;730;48.870;12.542;2022-12-29T06:28:03;4.57;;;4.00;;
1475;SDS011;730;48.870;12.542;2022-12-29T06:30:30;5.10;;;4.60;;
1475;SDS011;730;48.870;12.542;2022-12-29T06:32:58;6.03;;;5.13;;
1475;SDS011;730;48.870;12.542;2022-12-29T06:35:24;4.70;;;4.30;;
1475;SDS011;730;48.870;12.542;2022-12-29T06:37:51;7.25;;;5.07;;
1475;SDS011;730;48.870;12.542;2022-12-29T06:40:17;5.80;;;4.93;;
1475;SDS011;730;48.870;12.542;2022-12-29T06:42:43;5.18;;;4.30;;
1475;SDS011;730;48.870;12.542;2022-12-29T06:45:09;5.90;;;4.45;;
1475;SDS011;730;48.870;12.542;2022-12-29T06:47:36;5.78;;;5.10;;
1475;SDS011;730;48.870;12.542;2022-12-29T06:50:02;6.82;;;4.80;;
1475;SDS011;730;48.870;12.542;2022-12-29T06:52:28;4.68;;;4.10;;
1475;SDS011;730;48.870;12.542;2022-12-29T06:54:54;7.55;;;4.38;;
1475;SDS011;730;48.870;12.542;2022-12-29T06:57:20;6.10;;;4.85;;
1475;SDS011;730;48.870;12.542;2022-12-29T06:59:47;5.25;;;4.40;;
1475;SDS011;730;48.870;12.542;2022-12-29T07:02:14;4.82;;;4.38;;
1475;SDS011;730;48.870;12.542;2022-12-29T07:04:43;5.20;;;4.18;;
1475;SDS011;730;48.870;12.542;2022-12-29T07:07:09;5.70;;;5.10;;
1475;SDS011;730;48.870;12.542;2022-12-29T07:09:35;5.68;;;5.05;;
1475;SDS011;730;48.870;12.542;2022-12-29T07:12:01;5.20;;;3.88;;
1475;SDS011;730;48.870;12.542;2022-12-29T07:14:27;5.03;;;4.38;;
1475;SDS011;730;48.870;12.542;2022-12-29T07:16:54;5.63;;;4.63;;
1475;SDS011;730;48.870;12.542;2022-12-29T07:19:20;4.47;;;3.97;;
1475;SDS011;730;48.870;12.542;2022-12-29T07:21:46;5.95;;;4.22;;
1475;SDS011;730;48.870;12.542;2022-12-29T07:24:12;5.68;;;5.07;;
1475;SDS011;730;48.870;12.542;2022-12-29T07:26:38;5.45;;;4.80;;
1475;SDS011;730;48.870;12.542;2022-12-29T07:29:04;4.57;;;3.85;;
1475;SDS011;730;48.870;12.542;2022-12-29T07:31:30;6.82;;;5.15;;
1475;SDS011;730;48.870;12.542;2022-12-29T07:33:57;5.78;;;4.72;;
1475;SDS011;730;48.870;12.542;2022-12-29T07:36:23;3.95;;;3.65;;
1475;SDS011;730;48.870;12.542;2022-12-29T07:38:49;4.68;;;4.18;;
1475;SDS011;730;48.870;12.542;2022-12-29T07:41:16;4.45;;;4.05;;
1475;SDS011;730;48.870;12.542;2022-12-29T07:43:42;4.50;;;4.10;;
1475;SDS011;730;48.870;12.542;2022-12-29T07:46:11;3.85;;;3.50;;
1475;SDS011;730;48.870;12.542;2022-12-29T07:48:37;5.68;;;5.07;;
1475;SDS011;730;48.870;12.542;2022-12-29T07:51:03;5.13;;;4.72;;
1475;SDS011;730;48.870;12.542;2022-12-29T07:53:29;5.10;;;4.43;;
1475;SDS011;730;48.870;12.542;2022-12-29T07:55:55;4.95;;;4.50;;
1475;SDS011;730;48.870;12.542;2022-12-29T07:58:21;5.20;;;4.63;;
1475;SDS011;730;48.870;12.542;2022-12-29T08:00:52;5.40;;;4.75;;
1475;SDS011;730;48.870;12.542;2022-12-29T08:03:19;7.43;;;4.80;;
1475;SDS011;730;48.870;12.542;2022-12-29T08:05:45;5.25;;;4.75;;
1475;SDS011;730;48.870;12.542;2022-12-29T08:08:11;5.32;;;4.43;;
1475;SDS011;730;48.870;12.542;2022-12-29T08:10:37;6.57;;;5.00;;
1475;SDS011;730;48.870;12.542;2022-12-29T08:13:03;6.95;;;4.57;;
1475;SDS011;730;48.870;12.542;2022-12-29T08:15:29;5.40;;;4.38;;
1475;SDS011;730;48.870;12.542;2022-12-29T08:17:55;6.38;;;4.18;;
1475;SDS011;730;48.870;12.542;2022-12-29T08:20:21;6.30;;;4.30;;
1475;SDS011;730;48.870;12.542;2022-12-29T08:22:47;5.00;;;4.50;;
1475;SDS011;730;48.870;12.542;2022-12-29T08:25:13;5.03;;;4.57;;
1475;SDS011;730;48.870;12.542;2022-12-29T08:27:39;5.35;;;4.40;;
1475;SDS011;730;48.870;12.542;2022-12-29T08:30:06;4.70;;;4.25;;
1475;SDS011;730;48.870;12.542;2022-12-29T08:32:32;8.57;;;5.20;;
1475;SDS011;730;48.870;12.542;2022-12-29T08:34:59;5.35;;;4.85;;
1475;SDS011;730;48.870;12.542;2022-12-29T08:37:25;4.93;;;4.00;;
1475;SDS011;730;48.870;12.542;2022-12-29T08:39:51;7.82;;;4.60;;
1475;SDS011;730;48.870;12.542;2022-12-29T08:42:17;5.90;;;4.18;;
1475;SDS011;730;48.870;12.542;2022-12-29T08:44:43;5.38;;;4.82;;
1475;SDS011;730;48.870;12.542;2022-12-29T08:47:10;4.82;;;4.38;;
1475;SDS011;730;48.870;12.542;2022-12-29T08:49:36;4.57;;;4.10;;
1475;SDS011;730;48.870;12.542;2022-12-29T08:52:03;6.35;;;4.25;;
1475;SDS011;730;48.870;12.542;2022-12-29T08:54:29;4.30;;;3.90;;
1475;SDS011;730;48.870;12.542;2022-12-29T08:56:55;5.00;;;4.50;;
1475;SDS011;730;48.870;12.542;2022-12-29T08:59:24;4.93;;;4.38;;
1475;SDS011;730;48.870;12.542;2022-12-29T09:01:50;5.50;;;4.75;;
1475;SDS011;730;48.870;12.542;2022-12-29T09:04:16;5.00;;;4.50;;
1475;SDS011;730;48.870;12.542;2022-12-29T09:06:43;5.18;;;4.65;;
1475;SDS011;730;48.870;12.542;2022-12-29T09:09:10;5.45;;;4.95;;
1475;SDS011;730;48.870;12.542;2022-12-29T09:11:36;4.82;;;4.43;;
1475;SDS011;730;48.870;12.542;2022-12-29T09:14:02;4.40;;;3.92;;
1475;SDS011;730;48.870;12.542;2022-12-29T09:16:29;4.45;;;4.05;;
1475;SDS011;730;48.870;12.542;2022-12-29T09:18:55;4.40;;;4.00;;
1475;SDS011;730;48.870;12.542;2022-12-29T09:21:21;4.40;;;4.00;;
1475;SDS011;730;48.870;12.542;2022-12-29T09:23:48;5.10;;;4.05;;
1475;SDS011;730;48.870;12.542;2022-12-29T09:26:14;4.03;;;3.60;;
1475;SDS011;730;48.870;12.542;2022-12-29T09:28:40;4.07;;;3.50;;
1475;SDS011;730;48.870;12.542;2022-12-29T09:31:06;4.28;;;3.20;;
1475;SDS011;730;48.870;12.542;2022-12-29T09:33:32;4.90;;;3.83;;
1475;SDS011;730;48.870;12.542;2022-12-29T09:35:59;4.00;;;3.40;;
1475;SDS011;730;48.870;12.542;2022-12-29T09:38:26;5.15;;;3.67;;
1475;SDS011;730;48.870;12.542;2022-12-29T09:40:53;4.00;;;3.60;;
1475;SDS011;730;48.870;12.542;2022-12-29T09:46:14;4.22;;;3.83;;
1475;SDS011;730;48.870;12.542;2022-12-29T09:48:45;6.13;;;4.07;;
1475;SDS011;730;48.870;12.542;2022-12-29T09:51:17;9.07;;;3.63;;
1475;SDS011;730;48.870;12.542;2022-12-29T09:53:57;4.65;;;3.60;;
1475;SDS011;730;48.870;12.542;2022-12-29T09:56:28;4.00;;;3.60;;
1475;SDS011;730;48.870;12.542;2022-12-29T09:59:11;4.43;;;3.75;;
1475;SDS011;730;48.870;12.542;2022-12-29T10:01:53;4.55;;;3.85;;
1475;SDS011;730;48.870;12.542;2022-12-29T10:04:45;16.13;;;4.73;;
1475;SDS011;730;48.870;12.542;2022-12-29T10:07:17;6.47;;;3.60;;
1475;SDS011;730;48.870;12.542;2022-12-29T10:15:00;4.47;;;3.10;;
1475;SDS011;730;48.870;12.542;2022-12-29T10:23:54;4.88;;;4.25;;
1475;SDS011;730;48.870;12.542;2022-12-29T10:26:23;4.57;;;4.13;;
1475;SDS011;730;48.870;12.542;2022-12-29T10:28:54;4.50;;;4.10;;
1475;SDS011;730;48.870;12.542;2022-12-29T10:31:36;4.40;;;3.85;;
1475;SDS011;730;48.870;12.542;2022-12-29T10:34:19;4.65;;;3.55;;
1475;SDS011;730;48.870;12.542;2022-12-29T10:36:58;5.03;;;3.50;;
1475;SDS011;730;48.870;12.542;2022-12-29T10:39:33;4.40;;;3.90;;
1475;SDS011;730;48.870;12.542;2022-12-29T10:42:23;5.30;;;3.78;;
1475;SDS011;730;48.870;12.542;2022-12-29T10:45:14;4.75;;;4.25;;
1475;SDS011;730;48.870;12.542;2022-12-29T10:47:52;4.75;;;4.18;;
1475;SDS011;730;48.870;12.542;2022-12-29T10:50:28;5.28;;;4.20;;
1475;SDS011;730;48.870;12.542;2022-12-29T10:52:56;4.05;;;3.55;;
1475;SDS011;730;48.870;12.542;2022-12-29T10:55:28;4.70;;;4.05;;
1475;SDS011;730;48.870;12.542;2022-12-29T10:58:00;5.30;;;4.18;;
1475;SDS011;730;48.870;12.542;2022-12-29T11:00:30;4.65;;;4.20;;
1475;SDS011;730;48.870;12.542;2022-12-29T11:06:16;4.93;;;3.83;;
1475;SDS011;730;48.870;12.542;2022-12-29T11:08:58;5.18;;;4.68;;
1475;SDS011;730;48.870;12.542;2022-12-29T11:11:35;4.70;;;4.30;;
1475;SDS011;730;48.870;12.542;2022-12-29T11:14:18;4.32;;;3.85;;
1475;SDS011;730;48.870;12.542;2022-12-29T11:16:59;4.47;;;3.97;;
1475;SDS011;730;48.870;12.542;2022-12-29T11:19:28;4.20;;;3.57;;
1475;SDS011;730;48.870;12.542;2022-12-29T11:22:19;5.18;;;3.47;;
1475;SDS011;730;48.870;12.542;2022-12-29T11:24:48;3.92;;;3.50;;
1475;SDS011;730;48.870;12.542;2022-12-29T11:27:17;3.80;;;3.40;;
1475;SDS011;730;48.870;12.542;2022-12-29T11:29:48;4.60;;;3.83;;
1475;SDS011;730;48.870;12.542;2022-12-29T11:32:21;4.50;;;4.10;;
1475;SDS011;730;48.870;12.542;2022-12-29T11:34:48;6.97;;;4.07;;
1475;SDS011;730;48.870;12.542;2022-12-29T11:40:04;4.27;;;3.87;;
1475;SDS011;730;48.870;12.542;2022-12-29T11:42:48;5.03;;;4.23;;
1475;SDS011;730;48.870;12.542;2022-12-29T11:45:24;5.50;;;4.00;;
1475;SDS011;730;48.870;12.542;2022-12-29T11:47:58;5.23;;;4.50;;
1475;SDS011;730;48.870;12.542;2022-12-29T11:50:31;4.47;;;3.73;;
1475;SDS011;730;48.870;12.542;2022-12-29T11:58:30;6.30;;;3.37;;
1475;SDS011;730;48.870;12.542;2022-12-29T12:01:05;4.53;;;4.13;;
1475;SDS011;730;48.870;12.542;2022-12-29T12:03:38;5.30;;;4.37;;
1475;SDS011;730;48.870;12.542;2022-12-29T12:06:12;4.30;;;3.90;;
1475;SDS011;730;48.870;12.542;2022-12-29T12:08:48;4.93;;;4.10;;
1475;SDS011;730;48.870;12.542;2022-12-29T12:11:25;5.37;;;4.57;;
1475;SDS011;730;48.870;12.542;2022-12-29T12:21:47;4.72;;;4.07;;
1475;SDS011;730;48.870;12.542;2022-12-29T12:27:00;4.80;;;4.03;;
1475;SDS011;730;48.870;12.542;2022-12-29T12:32:01;5.40;;;4.30;;
1475;SDS011;730;48.870;12.542;2022-12-29T12:34:38;8.93;;;5.47;;
1475;SDS011;730;48.870;12.542;2022-12-29T12:49:55;5.90;;;4.20;;
1475;SDS011;730;48.870;12.542;2022-12-29T12:52:28;3.87;;;3.50;;
1475;SDS011;730;48.870;12.542;2022-12-29T13:06:55;5.83;;;3.27;;
1475;SDS011;730;48.870;12.542;2022-12-29T13:12:23;5.10;;;3.90;;
1475;SDS011;730;48.870;12.542;2022-12-29T13:15:04;4.30;;;3.60;;
1475;SDS011;730;48.870;12.542;2022-12-29T13:31:05;3.97;;;3.53;;
1475;SDS011;730;48.870;12.542;2022-12-29T13:39:21;3.93;;;3.47;;
1475;SDS011;730;48.870;12.542;2022-12-29T13:41:53;5.10;;;3.30;;
1475;SDS011;730;48.870;12.542;2022-12-29T13:44:22;4.13;;;3.73;;
1475;SDS011;730;48.870;12.542;2022-12-29T13:46:51;4.80;;;3.60;;
1475;SDS011;730;48.870;12.542;2022-12-29T13:49:19;3.87;;;3.40;;
1475;SDS011;730;48.870;12.542;2022-12-29T13:51:48;3.70;;;3.40;;
1475;SDS011;730;48.870;12.542;2022-12-29T13:54:35;3.80;;;3.40;;
1475;SDS011;730;48.870;12.542;2022-12-29T13:57:18;3.93;;;3.23;;
1475;SDS011;730;48.870;12.542;2022-12-29T14:00:07;4.10;;;3.70;;
1475;SDS011;730;48.870;12.542;2022-12-29T14:05:26;4.80;;;4.13;;
1475;SDS011;730;48.870;12.542;2022-12-29T14:07:57;6.13;;;4.53;;
1475;SDS011;730;48.870;12.542;2022-12-29T14:13:05;3.60;;;2.70;;
1475;SDS011;730;48.870;12.542;2022-12-29T14:15:32;3.33;;;2.70;;
1475;SDS011;730;48.870;12.542;2022-12-29T14:18:00;3.90;;;2.70;;
1475;SDS011;730;48.870;12.542;2022-12-29T14:20:30;6.60;;;3.60;;
1475;SDS011;730;48.870;12.542;2022-12-29T14:22:58;8.93;;;4.13;;
1475;SDS011;730;48.870;12.542;2022-12-29T14:28:34;6.03;;;4.10;;
1475;SDS011;730;48.870;12.542;2022-12-29T14:31:18;5.40;;;3.70;;
1475;SDS011;730;48.870;12.542;2022-12-29T14:36:41;3.83;;;3.00;;
1475;SDS011;730;48.870;12.542;2022-12-29T14:40:02;3.57;;;3.27;;
1475;SDS011;730;48.870;12.542;2022-12-29T14:44:48;3.03;;;2.43;;
1475;SDS011;730;48.870;12.542;2022-12-29T14:47:16;3.20;;;2.20;;
1475;SDS011;730;48.870;12.542;2022-12-29T15:00:46;2.60;;;2.40;;
1475;SDS011;730;48.870;12.542;2022-12-29T15:05:50;5.67;;;2.40;;
1475;SDS011;730;48.870;12.542;2022-12-29T15:08:31;3.77;;;2.77;;
1475;SDS011;730;48.870;12.542;2022-12-29T15:11:24;3.10;;;2.30;;
1475;SDS011;730;48.870;12.542;2022-12-29T15:16:50;1.40;;;1.30;;
1475;SDS011;730;48.870;12.542;2022-12-29T15:19:25;1.93;;;1.33;;
1475;SDS011;730;48.870;12.542;2022-12-29T15:21:52;7.27;;;5.10;;
1475;SDS011;730;48.870;12.542;2022-12-29T15:24:25;17.87;;;12.57;;
1475;SDS011;730;48.870;12.542;2022-12-29T15:26:51;11.90;;;7.93;;
1475;SDS011;730;48.870;12.542;2022-12-29T15:29:37;6.93;;;5.47;;
1475;SDS011;730;48.870;12.542;2022-12-29T15:32:21;5.60;;;4.70;;
1475;SDS011;730;48.870;12.542;2022-12-29T15:34:50;5.80;;;5.20;;
1475;SDS011;730;48.870;12.542;2022-12-29T15:37:43;4.40;;;3.97;;
1475;SDS011;730;48.870;12.542;2022-12-29T15:40:19;6.73;;;5.10;;
1475;SDS011;730;48.870;12.542;2022-12-29T15:45:33;6.13;;;5.23;;
1475;SDS011;730;48.870;12.542;2022-12-29T15:48:01;5.60;;;5.07;;
1475;SDS011;730;48.870;12.542;2022-12-29T15:50:32;6.60;;;5.90;;
1475;SDS011;730;48.870;12.542;2022-12-29T15:53:00;5.80;;;5.23;;
1475;SDS011;730;48.870;12.542;2022-12-29T15:55:35;6.57;;;5.50;;
1475;SDS011;730;48.870;12.542;2022-12-29T15:58:18;7.13;;;6.10;;
1475;SDS011;730;48.870;12.542;2022-12-29T16:00:47;7.10;;;6.40;;
1475;SDS011;730;48.870;12.542;2022-12-29T16:03:18;7.50;;;5.80;;
1475;SDS011;730;48.870;12.542;2022-12-29T16:05:53;6.10;;;4.90;;
1475;SDS011;730;48.870;12.542;2022-12-29T16:08:23;5.30;;;4.87;;
1475;SDS011;730;48.870;12.542;2022-12-29T16:10:58;7.60;;;5.30;;
1475;SDS011;730;48.870;12.542;2022-12-29T16:13:28;6.10;;;5.60;;
1475;SDS011;730;48.870;12.542;2022-12-29T16:16:28;6.93;;;5.37;;
1475;SDS011;730;48.870;12.542;2022-12-29T16:18:55;6.93;;;6.33;;
1475;SDS011;730;48.870;12.542;2022-12-29T16:21:23;8.00;;;7.20;;
1475;SDS011;730;48.870;12.542;2022-12-29T16:23:55;8.90;;;8.00;;
1475;SDS011;730;48.870;12.542;2022-12-29T16:26:26;10.47;;;9.37;;
1475;SDS011;730;48.870;12.542;2022-12-29T16:28:56;9.13;;;8.23;;
1475;SDS011;730;48.870;12.542;2022-12-29T16:31:25;10.30;;;7.90;;
1475;SDS011;730;48.870;12.542;2022-12-29T16:33:58;10.17;;;7.53;;
1475;SDS011;730;48.870;12.542;2022-12-29T16:36:39;9.00;;;7.87;;
1475;SDS011;730;48.870;12.542;2022-12-29T16:50:30;6.03;;;5.53;;
1475;SDS011;730;48.870;12.542;2022-12-29T16:52:57;5.97;;;5.47;;
1475;SDS011;730;48.870;12.542;2022-12-29T16:55:23;5.83;;;5.33;;
1475;SDS011;730;48.870;12.542;2022-12-29T16:57:50;7.13;;;5.63;;
1475;SDS011;730;48.870;12.542;2022-12-29T17:00:21;9.90;;;8.83;;
1475;SDS011;730;48.870;12.542;2022-12-29T17:02:58;8.23;;;5.80;;
1475;SDS011;730;48.870;12.542;2022-12-29T17:05:26;7.40;;;6.07;;
1475;SDS011;730;48.870;12.542;2022-12-29T17:07:53;7.00;;;6.15;;
1475;SDS011;730;48.870;12.542;2022-12-29T17:10:20;6.07;;;5.47;;
1475;SDS011;730;48.870;12.542;2022-12-29T17:13:06;7.57;;;6.70;;
1475;SDS011;730;48.870;12.542;2022-12-29T17:15:33;7.53;;;5.80;;
1475;SDS011;730;48.870;12.542;2022-12-29T17:18:00;6.50;;;5.50;;
1475;SDS011;730;48.870;12.542;2022-12-29T17:20:27;7.20;;;6.10;;
1475;SDS011;730;48.870;12.542;2022-12-29T17:22:55;6.15;;;5.55;;
1475;SDS011;730;48.870;12.542;2022-12-29T17:25:26;6.10;;;5.50;;
1475;SDS011;730;48.870;12.542;2022-12-29T17:27:54;6.93;;;6.23;;
1475;SDS011;730;48.870;12.542;2022-12-29T17:30:24;7.50;;;6.50;;
1475;SDS011;730;48.870;12.542;2022-12-29T17:32:52;8.03;;;7.33;;
1475;SDS011;730;48.870;12.542;2022-12-29T17:35:21;7.40;;;6.37;;
1475;SDS011;730;48.870;12.542;2022-12-29T17:37:48;7.20;;;6.50;;
1475;SDS011;730;48.870;12.542;2022-12-29T17:40:16;6.57;;;5.90;;
1475;SDS011;730;48.870;12.542;2022-12-29T17:42:45;7.30;;;6.60;;
1475;SDS011;730;48.870;12.542;2022-12-29T17:45:16;7.70;;;6.53;;
1475;SDS011;730;48.870;12.542;2022-12-29T17:47:45;8.60;;;6.87;;
1475;SDS011;730;48.870;12.542;2022-12-29T17:50:12;7.90;;;6.57;;
1475;SDS011;730;48.870;12.542;2022-12-29T17:52:39;7.43;;;6.20;;
1475;SDS011;730;48.870;12.542;2022-12-29T17:55:08;8.63;;;7.17;;
1475;SDS011;730;48.870;12.542;2022-12-29T17:57:40;7.20;;;6.50;;
1475;SDS011;730;48.870;12.542;2022-12-29T18:00:07;6.93;;;5.97;;
1475;SDS011;730;48.870;12.542;2022-12-29T18:02:39;7.07;;;6.37;;
1475;SDS011;730;48.870;12.542;2022-12-29T18:05:08;7.30;;;6.60;;
1475;SDS011;730;48.870;12.542;2022-12-29T18:07:41;8.57;;;7.47;;
1475;SDS011;730;48.870;12.542;2022-12-29T18:10:08;7.00;;;6.30;;
1475;SDS011;730;48.870;12.542;2022-12-29T18:12:36;6.90;;;6.13;;
1475;SDS011;730;48.870;12.542;2022-12-29T18:15:18;8.38;;;7.13;;
1475;SDS011;730;48.870;12.542;2022-12-29T18:17:59;9.73;;;8.17;;
1475;SDS011;730;48.870;12.542;2022-12-29T18:20:36;8.90;;;7.97;;
1475;SDS011;730;48.870;12.542;2022-12-29T18:23:03;7.63;;;6.93;;
1475;SDS011;730;48.870;12.542;2022-12-29T18:28:13;7.87;;;7.20;;
1475;SDS011;730;48.870;12.542;2022-12-29T18:30:39;7.40;;;6.40;;